Time;durP1;ratioP1;P1;durP2;ratioP2;P2;SDS_P1;SDS_P2;PMS_P1;PMS_P2;Temp;Humidity;BMP_temperature;BMP_pressure;BME280_temperature;BME280_humidity;BME280_pressure;Samples;Min_cycle;Max_cycle;Signal;HPM_P1;HPM_P2
2023/08/19 00:01:12;;;;;;;14.40;13.00;;;;;;;19.47;98.23;100745.86;105549;1254;73729;-63
2023/08/19 00:03:39;;;;;;;14.10;12.70;;;;;;;19.50;98.61;100740.88;105622;1256;83307;-63
2023/08/19 00:06:09;;;;;;;13.90;12.60;;;;;;;19.51;98.81;100738.65;105538;1251;73374;-63
2023/08/19 00:08:36;;;;;;;14.30;12.80;;;;;;;19.54;98.96;100740.92;105618;1254;69098;-63
2023/08/19 00:11:04;;;;;;;13.50;12.30;;;;;;;19.54;98.72;100742.91;105617;1257;69277;-63
2023/08/19 00:13:31;;;;;;;15.20;12.80;;;;;;;19.52;98.61;100742.35;105648;1256;73903;-63
2023/08/19 00:15:59;;;;;;;13.20;11.90;;;;;;;19.49;98.51;100742.04;105602;1256;83591;-63
2023/08/19 00:18:27;;;;;;;13.90;12.50;;;;;;;19.46;98.55;100741.73;105599;1251;72625;-63
2023/08/19 00:20:55;;;;;;;14.30;12.80;;;;;;;19.43;98.56;100740.46;105682;1254;69168;-63
2023/08/19 00:23:24;;;;;;;13.40;12.10;;;;;;;19.41;98.75;100739.23;105643;1255;69178;-63
2023/08/19 00:25:51;;;;;;;14.20;12.90;;;;;;;19.40;98.91;100744.60;105611;1254;74806;-63
2023/08/19 00:28:18;;;;;;;12.80;11.60;;;;;;;19.38;99.03;100743.63;105637;1257;82302;-63
2023/08/19 00:30:45;;;;;;;13.70;12.30;;;;;;;19.35;98.87;100744.20;105544;1256;71651;-63
2023/08/19 00:33:12;;;;;;;15.30;12.00;;;;;;;19.33;99.09;100741.17;105545;1254;69185;-63
2023/08/19 00:35:40;;;;;;;14.00;12.60;;;;;;;19.32;99.25;100740.54;105526;1254;69228;-65
2023/08/19 00:38:07;;;;;;;15.70;14.10;;;;;;;19.34;99.70;100741.27;105616;1253;73802;-66
2023/08/19 00:40:34;;;;;;;14.80;12.50;;;;;;;19.36;99.85;100738.11;105582;1256;83084;-64
2023/08/19 00:43:01;;;;;;;13.10;11.70;;;;;;;19.31;99.18;100737.09;105586;1254;74017;-64
2023/08/19 00:45:28;;;;;;;15.90;12.90;;;;;;;19.24;99.09;100735.42;105694;1256;69212;-64
2023/08/19 00:47:54;;;;;;;15.80;13.00;;;;;;;19.22;99.39;100737.49;105547;1257;69198;-64
2023/08/19 00:50:23;;;;;;;14.00;12.70;;;;;;;19.20;99.38;100738.88;105632;1254;75063;-63
2023/08/19 00:52:50;;;;;;;14.20;12.80;;;;;;;19.17;99.49;100731.40;105557;1256;83691;-63
2023/08/19 00:55:17;;;;;;;15.10;13.70;;;;;;;19.16;99.38;100733.84;105686;1254;72638;-64
2023/08/19 00:57:44;;;;;;;13.70;12.40;;;;;;;19.12;99.43;100731.27;105638;1256;69189;-63
2023/08/19 01:00:12;;;;;;;13.70;12.40;;;;;;;19.07;99.37;100730.34;105471;1254;69227;-63
2023/08/19 01:02:39;;;;;;;14.60;13.10;;;;;;;19.05;99.64;100726.91;105555;1254;73917;-63
2023/08/19 01:05:08;;;;;;;13.80;12.30;;;;;;;19.05;99.78;100722.90;105659;1256;83504;-63
2023/08/19 01:07:37;;;;;;;14.10;12.70;;;;;;;19.02;99.62;100722.70;105612;1256;74262;-63
2023/08/19 01:10:16;;;;;;;16.90;13.10;;;;;;;18.97;99.64;100721.84;105622;1254;69189;-63
2023/08/19 01:12:49;;;;;;;14.50;13.10;;;;;;;18.92;99.78;100723.05;105586;1256;69109;-63
2023/08/19 01:15:22;;;;;;;13.50;12.20;;;;;;;18.89;99.83;100721.98;105612;1254;74989;-63
2023/08/19 01:17:50;;;;;;;14.10;12.60;;;;;;;18.84;99.85;100718.92;105607;1254;82592;-63
2023/08/19 01:20:18;;;;;;;14.00;12.10;;;;;;;18.80;99.77;100717.11;105611;1254;73818;-63
2023/08/19 01:22:53;;;;;;;15.60;14.20;;;;;;;18.77;99.93;100719.77;105582;1256;69217;-64
2023/08/19 01:25:20;;;;;;;16.00;14.40;;;;;;;18.80;100.00;100722.08;105530;1254;69323;-63
2023/08/19 01:27:47;;;;;;;16.70;14.00;;;;;;;18.83;100.00;100721.66;105633;1254;73762;-63
2023/08/19 01:30:14;;;;;;;16.60;12.50;;;;;;;18.83;100.00;100716.73;105567;1254;82395;-63
2023/08/19 01:32:43;;;;;;;14.30;12.40;;;;;;;18.80;100.00;100713.58;105598;1253;72640;-63
2023/08/19 01:35:11;;;;;;;14.40;13.00;;;;;;;18.77;100.00;100713.02;105572;1253;69151;-64
2023/08/19 01:37:49;;;;;;;16.30;14.10;;;;;;;18.78;100.00;100716.55;105652;1256;69183;-63
2023/08/19 01:40:16;;;;;;;15.60;14.10;;;;;;;18.79;100.00;100719.84;105656;1254;75026;-63
2023/08/19 01:42:44;;;;;;;15.60;13.80;;;;;;;18.80;100.00;100715.16;105663;1255;83357;-63
2023/08/19 01:45:11;;;;;;;15.30;13.50;;;;;;;18.83;100.00;100717.09;105481;1254;72641;-62
2023/08/19 01:47:39;;;;;;;15.20;13.70;;;;;;;18.85;100.00;100719.05;105613;1256;69735;-62
2023/08/19 01:50:07;;;;;;;16.20;14.30;;;;;;;18.88;100.00;100720.81;105574;1256;69183;-62
2023/08/19 01:52:35;;;;;;;15.50;13.60;;;;;;;18.87;100.00;100719.45;105552;1254;74701;-62
2023/08/19 01:55:02;;;;;;;15.70;13.80;;;;;;;18.86;100.00;100718.15;105577;1253;83304;-62
2023/08/19 01:57:29;;;;;;;14.90;13.40;;;;;;;18.83;100.00;100713.18;105559;1254;73879;-62
2023/08/19 01:59:57;;;;;;;14.60;13.10;;;;;;;18.82;100.00;100714.16;105566;1256;69052;-62
2023/08/19 02:02:24;;;;;;;15.90;13.70;;;;;;;18.78;100.00;100716.39;105583;1256;69117;-62
2023/08/19 02:04:51;;;;;;;16.40;13.90;;;;;;;18.74;100.00;100717.47;105611;1257;75092;-62
2023/08/19 02:07:18;;;;;;;15.40;13.80;;;;;;;18.73;100.00;100717.01;105478;1256;83142;-62
2023/08/19 02:09:46;;;;;;;15.00;13.50;;;;;;;18.72;100.00;100715.28;105531;1254;73666;-62
2023/08/19 02:12:13;;;;;;;17.60;12.70;;;;;;;18.68;100.00;100714.63;105522;1253;69189;-62
2023/08/19 02:14:40;;;;;;;16.30;13.00;;;;;;;18.65;100.00;100715.04;105570;1254;69064;-62
2023/08/19 02:17:08;;;;;;;15.60;14.00;;;;;;;18.61;100.00;100708.90;105477;1254;74836;-62
2023/08/19 02:19:35;;;;;;;15.00;13.60;;;;;;;18.58;100.00;100703.84;105523;1254;83308;-62
2023/08/19 02:22:02;;;;;;;15.60;14.00;;;;;;;18.56;100.00;100706.42;105702;1256;72872;-62
2023/08/19 02:24:29;;;;;;;14.70;13.30;;;;;;;18.55;100.00;100705.08;105589;1254;69081;-62
2023/08/19 02:26:56;;;;;;;15.20;13.70;;;;;;;18.54;100.00;100703.39;105608;1257;69285;-62
2023/08/19 02:29:23;;;;;;;15.10;13.20;;;;;;;18.51;100.00;100701.98;105518;1254;74517;-62
2023/08/19 02:31:50;;;;;;;14.70;13.30;;;;;;;18.47;100.00;100700.48;105556;1254;82424;-62
2023/08/19 02:34:17;;;;;;;16.70;13.90;;;;;;;18.44;100.00;100700.15;105559;1253;72896;-62
2023/08/19 02:36:44;;;;;;;14.80;13.40;;;;;;;18.42;100.00;100695.66;105572;1256;69579;-62
2023/08/19 02:39:11;;;;;;;15.10;13.60;;;;;;;18.40;100.00;100694.71;105631;1255;69138;-62
2023/08/19 02:41:38;;;;;;;15.40;13.50;;;;;;;18.38;100.00;100695.06;105530;1253;73919;-62
2023/08/19 02:44:05;;;;;;;14.90;13.40;;;;;;;18.35;100.00;100696.29;105566;1257;83191;-62
2023/08/19 02:46:32;;;;;;;14.50;13.00;;;;;;;18.33;100.00;100696.79;105593;1257;73722;-62
2023/08/19 02:49:00;;;;;;;14.00;12.60;;;;;;;18.28;100.00;100698.68;105628;1254;69075;-62
2023/08/19 02:51:27;;;;;;;15.70;14.00;;;;;;;18.24;100.00;100699.98;105561;1254;69183;-62
2023/08/19 02:53:54;;;;;;;15.90;14.30;;;;;;;18.22;100.00;100704.60;105573;1252;74885;-62
2023/08/19 02:56:21;;;;;;;14.50;12.90;;;;;;;18.23;100.00;100707.65;105654;1255;83248;-62
2023/08/19 02:58:47;;;;;;;15.10;13.50;;;;;;;18.25;100.00;100708.23;105479;1256;73838;-62
2023/08/19 03:01:14;;;;;;;16.80;14.00;;;;;;;18.23;100.00;100706.59;105588;1253;69184;-62
2023/08/19 03:03:41;;;;;;;14.80;13.30;;;;;;;18.20;100.00;100708.08;105668;1257;69227;-62
2023/08/19 03:06:08;;;;;;;14.50;13.10;;;;;;;18.17;100.00;100705.92;105574;1254;74955;-62
2023/08/19 03:08:35;;;;;;;15.20;13.60;;;;;;;18.16;100.00;100709.17;105473;1254;82403;-62
2023/08/19 03:11:02;;;;;;;15.30;13.80;;;;;;;18.19;100.00;100710.92;105623;1254;73776;-62
2023/08/19 03:13:30;;;;;;;17.50;13.80;;;;;;;18.21;100.00;100714.14;105475;1254;69163;-62
2023/08/19 03:15:59;;;;;;;14.70;13.40;;;;;;;18.21;100.00;100719.66;105501;1252;69093;-62
2023/08/19 03:18:26;;;;;;;15.10;13.50;;;;;;;18.19;100.00;100721.23;105622;1256;74979;-62
2023/08/19 03:21:03;;;;;;;14.80;13.10;;;;;;;18.14;100.00;100722.23;105540;1254;83917;-62
2023/08/19 03:23:30;;;;;;;14.70;13.10;;;;;;;18.09;100.00;100726.64;105476;1254;73860;-62
2023/08/19 03:25:57;;;;;;;14.80;13.30;;;;;;;18.06;100.00;100730.15;105491;1254;69217;-62
2023/08/19 03:28:24;;;;;;;15.10;13.50;;;;;;;18.06;100.00;100731.58;105554;1257;69206;-62
2023/08/19 03:30:51;;;;;;;15.00;13.40;;;;;;;18.04;100.00;100735.38;105619;1254;74593;-61
2023/08/19 03:33:20;;;;;;;14.10;12.70;;;;;;;18.05;100.00;100739.02;105611;1254;82336;-62
2023/08/19 03:35:47;;;;;;;15.50;13.80;;;;;;;18.04;100.00;100735.92;105577;1253;73676;-62
2023/08/19 03:38:15;;;;;;;14.50;13.00;;;;;;;18.03;100.00;100738.11;105473;1256;69218;-62
2023/08/19 03:40:42;;;;;;;15.60;13.70;;;;;;;18.02;100.00;100734.80;105598;1255;69140;-62
2023/08/19 03:43:12;;;;;;;14.60;13.20;;;;;;;18.04;100.00;100738.06;105637;1254;74834;-62
2023/08/19 03:45:39;;;;;;;13.10;11.90;;;;;;;18.04;100.00;100741.09;105496;1254;82349;-62
2023/08/19 03:48:06;;;;;;;14.90;13.30;;;;;;;18.02;100.00;100740.17;105493;1254;73738;-62
2023/08/19 03:50:33;;;;;;;14.70;12.80;;;;;;;18.01;100.00;100745.31;105626;1253;69759;-62
2023/08/19 03:53:00;;;;;;;14.60;13.20;;;;;;;18.01;100.00;100748.85;105694;1255;69147;-61
2023/08/19 03:55:30;;;;;;;14.70;13.20;;;;;;;18.01;100.00;100749.57;105594;1252;75173;-62
2023/08/19 03:57:57;;;;;;;14.90;13.20;;;;;;;17.99;100.00;100751.80;105614;1253;83354;-62
2023/08/19 04:00:24;;;;;;;14.60;13.10;;;;;;;17.97;100.00;100752.11;105659;1254;72606;-62
2023/08/19 04:02:51;;;;;;;14.00;12.60;;;;;;;17.95;100.00;100750.10;105603;1252;69183;-62
2023/08/19 04:05:18;;;;;;;14.50;13.10;;;;;;;17.94;100.00;100756.17;105502;1256;69179;-62
2023/08/19 04:07:46;;;;;;;14.70;13.30;;;;;;;17.95;100.00;100756.88;105620;1256;74845;-62
2023/08/19 04:10:13;;;;;;;14.60;12.70;;;;;;;17.97;100.00;100752.80;105597;1255;83215;-62
2023/08/19 04:12:40;;;;;;;14.50;13.00;;;;;;;17.95;100.00;100750.47;105600;1254;72690;-62
2023/08/19 04:15:09;;;;;;;15.60;14.10;;;;;;;17.95;100.00;100748.52;105617;1254;69157;-62
2023/08/19 04:17:36;;;;;;;16.70;14.10;;;;;;;17.99;100.00;100750.02;105525;1255;69165;-62
2023/08/19 04:20:08;;;;;;;14.70;13.20;;;;;;;18.01;100.00;100747.25;105669;1252;74957;-62
2023/08/19 04:22:37;;;;;;;13.70;12.40;;;;;;;18.01;100.00;100747.63;105641;1256;83827;-62
2023/08/19 04:25:05;;;;;;;14.40;12.90;;;;;;;18.02;100.00;100748.23;105596;1256;72097;-62
2023/08/19 04:27:31;;;;;;;13.80;12.50;;;;;;;18.02;100.00;100748.98;105532;1254;69233;-62
2023/08/19 04:29:59;;;;;;;15.40;13.70;;;;;;;18.02;100.00;100750.36;105607;1256;69173;-62
2023/08/19 04:32:27;;;;;;;16.80;15.20;;;;;;;18.07;100.00;100747.45;105616;1254;74988;-62
2023/08/19 04:34:54;;;;;;;18.00;16.30;;;;;;;18.14;100.00;100751.08;105560;1256;83470;-62
2023/08/19 04:37:21;;;;;;;17.60;15.90;;;;;;;18.20;100.00;100751.73;105620;1254;73629;-62
2023/08/19 04:39:49;;;;;;;19.00;17.20;;;;;;;18.26;100.00;100751.50;105605;1253;69249;-62
2023/08/19 04:42:20;;;;;;;16.40;14.70;;;;;;;18.33;100.00;100753.77;105551;1255;69211;-62
2023/08/19 04:44:47;;;;;;;16.60;15.00;;;;;;;18.35;100.00;100756.46;105581;1254;73734;-62
2023/08/19 04:47:16;;;;;;;16.90;15.10;;;;;;;18.38;100.00;100760.71;105648;1254;82301;-62
2023/08/19 04:49:43;;;;;;;16.30;14.70;;;;;;;18.41;100.00;100764.91;105499;1254;73677;-62
2023/08/19 04:52:11;;;;;;;17.50;15.80;;;;;;;18.44;100.00;100764.33;105629;1252;69070;-62
2023/08/19 04:54:37;;;;;;;17.80;16.10;;;;;;;18.48;100.00;100762.48;105639;1256;69192;-61
2023/08/19 04:57:05;;;;;;;18.40;16.70;;;;;;;18.56;100.00;100764.82;105616;1254;75057;-61
2023/08/19 04:59:32;;;;;;;21.00;18.90;;;;;;;18.65;100.00;100765.69;105478;1253;82570;-63
2023/08/19 05:02:00;;;;;;;20.50;18.60;;;;;;;18.73;100.00;100766.23;105822;1254;72589;-63
2023/08/19 05:04:27;;;;;;;20.80;18.80;;;;;;;18.78;100.00;100763.96;105536;1254;69166;-64
2023/08/19 05:06:54;;;;;;;20.00;17.90;;;;;;;18.84;100.00;100766.75;105580;1255;69131;-64
2023/08/19 05:09:20;;;;;;;20.80;18.70;;;;;;;18.91;100.00;100766.30;105630;1254;75088;-61
2023/08/19 05:11:48;;;;;;;22.00;19.70;;;;;;;19.00;100.00;100763.25;105661;1255;83162;-64
2023/08/19 05:14:15;;;;;;;20.40;18.50;;;;;;;19.07;100.00;100764.20;105634;1255;72621;-64
2023/08/19 05:16:43;;;;;;;20.30;18.20;;;;;;;19.14;100.00;100761.91;105609;1255;69175;-65
2023/08/19 05:19:18;;;;;;;22.80;20.60;;;;;;;19.21;100.00;100764.85;105769;1255;69140;-67
2023/08/19 05:21:48;;;;;;;22.00;19.90;;;;;;;19.27;100.00;100763.70;105751;1254;74006;-64
2023/08/19 05:24:15;;;;;;;22.80;20.40;;;;;;;19.34;100.00;100766.98;105727;1255;82264;-64
2023/08/19 05:26:44;;;;;;;22.60;20.30;;;;;;;19.39;100.00;100767.87;105782;1254;72688;-61
2023/08/19 05:29:12;;;;;;;21.30;19.20;;;;;;;19.45;100.00;100768.90;105694;1254;69077;-64
2023/08/19 05:31:40;;;;;;;21.80;19.50;;;;;;;19.52;100.00;100771.43;105688;1255;69144;-64
2023/08/19 05:34:08;;;;;;;21.80;19.80;;;;;;;19.59;100.00;100772.17;105778;1254;74689;-64
2023/08/19 05:36:35;;;;;;;23.40;21.10;;;;;;;19.64;100.00;100773.96;105709;1254;81336;-64
2023/08/19 05:39:03;;;;;;;23.10;20.60;;;;;;;19.71;100.00;100773.72;105730;1254;74181;-64
2023/08/19 05:41:30;;;;;;;20.90;18.80;;;;;;;19.76;100.00;100769.23;105786;1253;69173;-64
2023/08/19 05:43:57;;;;;;;21.80;19.80;;;;;;;19.81;100.00;100768.17;105631;1256;69143;-64
2023/08/19 05:46:24;;;;;;;23.00;20.80;;;;;;;19.87;100.00;100773.68;105793;1254;74805;-64
2023/08/19 05:48:51;;;;;;;22.90;20.40;;;;;;;19.93;100.00;100773.02;105627;1256;83522;-65
2023/08/19 05:51:18;;;;;;;22.20;19.60;;;;;;;20.01;100.00;100778.30;105612;1254;73449;-64
2023/08/19 05:53:45;;;;;;;22.70;20.40;;;;;;;20.08;100.00;100779.23;105596;1256;69154;-64
2023/08/19 05:56:11;;;;;;;23.00;20.80;;;;;;;20.15;100.00;100778.70;105687;1256;69254;-65
2023/08/19 05:58:38;;;;;;;21.50;19.30;;;;;;;20.22;100.00;100778.97;105842;1255;74605;-64
2023/08/19 06:01:06;;;;;;;22.60;20.00;;;;;;;20.29;100.00;100783.07;105524;1254;82381;-64
2023/08/19 06:03:34;;;;;;;21.90;19.70;;;;;;;20.38;100.00;100786.35;105573;1254;73835;-64
2023/08/19 06:06:08;;;;;;;21.40;19.30;;;;;;;20.45;100.00;100789.05;105768;1254;69182;-64
2023/08/19 06:08:34;;;;;;;22.40;20.20;;;;;;;20.50;100.00;100787.58;105720;1254;69192;-64
2023/08/19 06:11:06;;;;;;;21.10;19.00;;;;;;;20.57;100.00;100789.80;105766;1254;74785;-64
2023/08/19 06:13:34;;;;;;;22.10;19.80;;;;;;;20.65;100.00;100794.89;105733;1254;83218;-64
2023/08/19 06:16:03;;;;;;;21.40;19.40;;;;;;;20.72;100.00;100793.14;105724;1254;73808;-64
2023/08/19 06:18:31;;;;;;;21.70;19.60;;;;;;;20.80;100.00;100798.39;105746;1255;69189;-64
2023/08/19 06:20:59;;;;;;;23.40;21.10;;;;;;;20.89;100.00;100799.50;105676;1256;69109;-64
2023/08/19 06:23:26;;;;;;;22.40;20.20;;;;;;;20.98;100.00;100801.50;105768;1256;74860;-64
2023/08/19 06:25:53;;;;;;;22.10;20.00;;;;;;;21.05;100.00;100799.54;105587;1256;84143;-64
2023/08/19 06:28:21;;;;;;;21.40;19.50;;;;;;;21.13;100.00;100798.05;105709;1256;73690;-64
2023/08/19 06:30:49;;;;;;;22.50;20.40;;;;;;;21.21;100.00;100798.03;105731;1254;69068;-64
2023/08/19 06:33:17;;;;;;;22.60;20.40;;;;;;;21.27;100.00;100797.52;105732;1256;69070;-64
2023/08/19 06:35:48;;;;;;;22.20;20.10;;;;;;;21.35;100.00;100794.14;105746;1254;73954;-65
2023/08/19 06:38:19;;;;;;;21.70;19.60;;;;;;;21.43;100.00;100790.89;105611;1256;83162;-65
2023/08/19 06:41:06;;;;;;;22.70;20.40;;;;;;;21.52;100.00;100793.23;105768;1255;73556;-65
2023/08/19 06:43:34;;;;;;;20.60;18.70;;;;;;;21.63;100.00;100794.81;105604;1253;69904;-64
2023/08/19 06:46:01;;;;;;;21.20;19.10;;;;;;;21.74;100.00;100795.59;105703;1256;69189;-64
2023/08/19 06:48:29;;;;;;;21.70;19.50;;;;;;;21.81;100.00;100801.30;105688;1254;74871;-64
2023/08/19 06:50:56;;;;;;;21.70;19.60;;;;;;;21.88;100.00;100805.04;105844;1254;82448;-65
2023/08/19 06:53:24;;;;;;;20.00;18.20;;;;;;;21.97;100.00;100805.90;105750;1256;73844;-64
2023/08/19 06:56:13;;;;;;;20.70;18.40;;;;;;;22.07;100.00;100807.06;105484;1256;69078;-60
2023/08/19 06:58:44;;;;;;;20.50;18.50;;;;;;;22.17;100.00;100805.79;105520;1256;69184;-65
2023/08/19 07:01:22;;;;;;;20.60;18.50;;;;;;;22.26;100.00;100814.47;105634;1254;75064;-64
2023/08/19 07:03:52;;;;;;;20.30;18.30;;;;;;;22.38;100.00;100817.50;106337;1254;83294;-64
2023/08/19 07:06:22;;;;;;;20.20;18.40;;;;;;;22.48;100.00;100815.05;105597;1256;73834;-64
2023/08/19 07:08:50;;;;;;;21.40;19.40;;;;;;;22.60;100.00;100818.52;105664;1254;69138;-62
2023/08/19 07:11:18;;;;;;;20.80;18.60;;;;;;;22.69;100.00;100816.95;105632;1255;69205;-63
2023/08/19 07:13:45;;;;;;;20.40;18.10;;;;;;;22.79;100.00;100814.48;105644;1254;74874;-66
2023/08/19 07:16:13;;;;;;;19.30;17.50;;;;;;;22.88;100.00;100819.32;105653;1254;82537;-66
2023/08/19 07:18:41;;;;;;;18.80;16.90;;;;;;;22.93;100.00;100819.75;105564;1254;73848;-66
2023/08/19 07:21:11;;;;;;;17.90;16.30;;;;;;;23.00;100.00;100822.95;105640;1254;69174;-66
2023/08/19 07:23:40;;;;;;;18.00;16.40;;;;;;;23.09;100.00;100823.79;105587;1256;69182;-66
2023/08/19 07:26:08;;;;;;;17.70;16.00;;;;;;;23.18;100.00;100824.16;105613;1256;73753;-66
2023/08/19 07:28:36;;;;;;;17.80;16.00;;;;;;;23.27;100.00;100824.07;105684;1256;83206;-66
2023/08/19 07:31:06;;;;;;;17.60;15.90;;;;;;;23.36;100.00;100828.52;105683;1255;73702;-66
2023/08/19 07:33:33;;;;;;;16.40;14.80;;;;;;;23.44;100.00;100826.79;105648;1256;69180;-66
2023/08/19 07:36:00;;;;;;;17.20;15.40;;;;;;;23.51;100.00;100826.00;105572;1256;69253;-66
2023/08/19 07:38:28;;;;;;;16.20;14.80;;;;;;;23.59;100.00;100828.16;105636;1256;74928;-66
2023/08/19 07:40:55;;;;;;;17.00;15.20;;;;;;;23.68;100.00;100829.95;105559;1256;83481;-66
2023/08/19 07:43:22;;;;;;;16.00;14.70;;;;;;;23.77;100.00;100834.90;105550;1256;72687;-66
2023/08/19 07:45:49;;;;;;;14.60;13.20;;;;;;;23.83;100.00;100839.36;105570;1253;69064;-66
2023/08/19 07:48:16;;;;;;;15.20;13.90;;;;;;;23.91;100.00;100835.29;105646;1255;69292;-66
2023/08/19 07:50:43;;;;;;;15.30;13.90;;;;;;;23.99;100.00;100837.77;105588;1252;75078;-66
2023/08/19 07:53:12;;;;;;;15.40;13.90;;;;;;;24.11;100.00;100842.64;105659;1256;83290;-66
2023/08/19 07:55:39;;;;;;;15.10;13.60;;;;;;;24.23;100.00;100845.04;105588;1256;73534;-67
2023/08/19 07:58:07;;;;;;;14.10;12.60;;;;;;;24.31;100.00;100843.30;105501;1256;224846;-66
2023/08/19 08:00:34;;;;;;;14.90;13.30;;;;;;;24.38;100.00;100842.95;105626;1255;69170;-66
2023/08/19 08:03:01;;;;;;;15.70;14.10;;;;;;;24.44;99.98;100845.85;105604;1254;74786;-67
2023/08/19 08:05:28;;;;;;;14.20;12.80;;;;;;;24.54;100.00;100845.91;105620;1256;82192;-66
2023/08/19 08:07:56;;;;;;;15.00;13.50;;;;;;;24.64;99.95;100845.30;105569;1252;72614;-66
2023/08/19 08:10:23;;;;;;;14.60;13.10;;;;;;;24.72;99.53;100845.31;105561;1255;69227;-66
2023/08/19 08:12:49;;;;;;;13.80;12.50;;;;;;;24.77;98.62;100841.66;105616;1254;69293;-67
2023/08/19 08:15:17;;;;;;;13.50;12.40;;;;;;;24.82;98.22;100840.88;105612;1252;74825;-67
2023/08/19 08:17:44;;;;;;;14.90;13.60;;;;;;;24.96;98.20;100839.29;105634;1256;83151;-66
2023/08/19 08:20:11;;;;;;;14.40;12.90;;;;;;;25.07;98.09;100837.16;105593;1254;72802;-67
2023/08/19 08:22:38;;;;;;;13.80;12.50;;;;;;;25.16;96.96;100840.27;105590;1254;69170;-67
2023/08/19 08:25:05;;;;;;;13.70;12.40;;;;;;;25.26;97.16;100842.45;105565;1256;69652;-66
2023/08/19 08:27:34;;;;;;;13.90;12.60;;;;;;;25.40;96.87;100845.60;105645;1256;74650;-66
2023/08/19 08:30:02;;;;;;;14.60;13.20;;;;;;;25.52;96.32;100845.61;105595;1255;83315;-66
2023/08/19 08:32:29;;;;;;;12.90;11.70;;;;;;;25.59;95.52;100847.56;105583;1256;73623;-67
2023/08/19 08:34:56;;;;;;;14.60;13.10;;;;;;;25.69;95.00;100854.58;105624;1254;69166;-67
2023/08/19 08:37:23;;;;;;;14.20;12.90;;;;;;;25.78;94.73;100855.67;105594;1254;69263;-66
2023/08/19 08:39:49;;;;;;;14.00;12.70;;;;;;;25.84;94.31;100856.04;105621;1254;73830;-67
2023/08/19 08:42:17;;;;;;;14.90;12.30;;;;;;;25.96;94.06;100857.39;105603;1256;83675;-67
2023/08/19 08:44:48;;;;;;;13.10;12.00;;;;;;;26.05;93.46;100859.77;105661;1254;72591;-66
2023/08/19 08:47:16;;;;;;;14.70;12.60;;;;;;;26.16;93.01;100859.48;105521;1257;69169;-66
2023/08/19 08:49:45;;;;;;;13.10;11.80;;;;;;;26.25;92.17;100862.33;105609;1254;69407;-66
2023/08/19 08:52:12;;;;;;;13.70;12.50;;;;;;;26.36;92.00;100860.27;105548;1254;75060;-67
2023/08/19 08:54:40;;;;;;;12.60;11.40;;;;;;;26.51;91.71;100854.71;105590;1256;82466;-66
2023/08/19 08:57:06;;;;;;;13.80;12.50;;;;;;;26.64;90.99;100857.54;105593;1255;73866;-67
2023/08/19 08:59:34;;;;;;;13.90;12.70;;;;;;;26.71;90.72;100856.85;105612;1252;69065;-67
2023/08/19 09:02:02;;;;;;;14.00;12.70;;;;;;;26.78;90.06;100858.47;105564;1255;69268;-67
2023/08/19 09:04:30;;;;;;;13.40;12.00;;;;;;;26.86;89.22;100856.79;105521;1254;73984;-67
2023/08/19 09:07:02;;;;;;;12.70;11.50;;;;;;;26.95;88.63;100854.70;105476;1256;83671;-67
2023/08/19 09:09:32;;;;;;;13.70;12.20;;;;;;;27.03;88.17;100854.75;105592;1256;73900;-67
2023/08/19 09:12:00;;;;;;;13.30;12.10;;;;;;;27.17;88.01;100850.16;105604;1256;69890;-67
2023/08/19 09:14:43;;;;;;;14.30;11.90;;;;;;;27.30;87.92;100847.80;105598;1256;69147;-67
2023/08/19 09:17:15;;;;;;;13.50;12.30;;;;;;;27.42;87.50;100846.09;105597;1254;74943;-67
2023/08/19 09:19:43;;;;;;;13.30;12.00;;;;;;;27.55;87.35;100849.89;105595;1256;83689;-67
2023/08/19 09:22:16;;;;;;;12.10;11.00;;;;;;;27.67;86.46;100848.85;105598;1254;73486;-67
2023/08/19 09:24:44;;;;;;;14.40;12.50;;;;;;;27.79;85.90;100847.48;105601;1251;69077;-67
2023/08/19 09:27:11;;;;;;;13.30;12.20;;;;;;;27.88;85.12;100848.61;105638;1254;69064;-67
2023/08/19 09:29:50;;;;;;;13.20;12.00;;;;;;;27.99;85.19;100844.33;105591;1256;73698;-67
2023/08/19 09:32:26;;;;;;;13.50;12.40;;;;;;;28.20;84.53;100853.34;105621;1256;83384;-67
2023/08/19 09:35:07;;;;;;;12.90;11.80;;;;;;;28.30;83.48;100851.38;105597;1252;72572;-67
2023/08/19 09:37:36;;;;;;;13.80;12.60;;;;;;;28.41;82.44;100853.65;105587;1253;69198;-67
2023/08/19 09:40:18;;;;;;;12.60;11.50;;;;;;;28.46;81.69;100850.77;105639;1254;69165;-67
2023/08/19 09:42:49;;;;;;;12.90;11.70;;;;;;;28.55;80.65;100846.08;105608;1254;74793;-67
2023/08/19 09:45:21;;;;;;;12.80;11.60;;;;;;;28.60;79.29;100847.90;105579;1256;83417;-67
2023/08/19 09:47:50;;;;;;;11.80;10.70;;;;;;;28.66;78.73;100841.78;105602;1251;73364;-67
2023/08/19 09:50:18;;;;;;;;;;;;;;;28.78;78.34;100839.81;105654;1256;69198;-67
2023/08/19 09:52:55;;;;;;;14.80;11.50;;;;;;;28.89;77.51;100840.96;105615;1256;69204;-67
2023/08/19 09:55:24;;;;;;;11.60;10.60;;;;;;;28.98;77.06;100835.34;105640;1256;75122;-67
2023/08/19 09:57:51;;;;;;;11.80;10.60;;;;;;;29.12;76.68;100832.17;105651;1256;83801;-67
2023/08/19 10:00:18;;;;;;;12.70;11.40;;;;;;;29.26;75.97;100839.01;105570;1251;72964;-68
2023/08/19 10:02:46;;;;;;;11.80;10.80;;;;;;;29.42;75.49;100833.95;105651;1256;69156;-61
2023/08/19 10:05:13;;;;;;;11.80;10.70;;;;;;;29.55;75.10;100833.02;105600;1256;69530;-60
2023/08/19 10:07:46;;;;;;;9.80;8.80;;;;;;;29.70;74.56;100832.50;105629;1256;75300;-60
2023/08/19 10:10:13;;;;;;;9.50;8.60;;;;;;;29.88;73.56;100835.21;105613;1254;83511;-57
2023/08/19 10:12:41;;;;;;;9.80;8.90;;;;;;;30.13;72.65;100832.77;105646;1253;73598;-58
2023/08/19 10:15:12;;;;;;;9.20;8.30;;;;;;;30.30;71.43;100829.39;105667;1254;69074;-58
2023/08/19 10:17:48;;;;;;;9.80;8.90;;;;;;;30.51;71.06;100826.20;105599;1256;69162;-58
2023/08/19 10:20:17;;;;;;;9.90;9.00;;;;;;;30.65;70.03;100823.39;105535;1254;74849;-57
2023/08/19 10:22:48;;;;;;;8.70;7.90;;;;;;;30.80;69.50;100825.11;105546;1254;83357;-57
2023/08/19 10:25:17;;;;;;;8.30;7.50;;;;;;;31.04;68.94;100825.53;105589;1254;73596;-57
2023/08/19 10:27:45;;;;;;;8.40;7.70;;;;;;;31.25;67.70;100822.40;105653;1253;69281;-57
2023/08/19 10:30:24;;;;;;;9.80;7.80;;;;;;;31.41;67.71;100822.74;105638;1254;69085;-57
2023/08/19 10:32:51;;;;;;;9.10;8.10;;;;;;;31.74;67.23;100823.19;105610;1257;75165;-58
2023/08/19 10:35:18;;;;;;;9.00;8.20;;;;;;;32.04;66.36;100828.30;105614;1256;83217;-58
2023/08/19 10:37:48;;;;;;;8.60;7.70;;;;;;;32.28;65.43;100825.29;105605;1256;73737;-57
2023/08/19 10:40:25;;;;;;;8.40;7.60;;;;;;;32.55;64.39;100822.94;105634;1252;69068;-57
2023/08/19 10:42:57;;;;;;;7.90;7.10;;;;;;;32.81;63.31;100819.72;105594;1256;69165;-60
2023/08/19 10:45:35;;;;;;;8.00;7.20;;;;;;;33.06;62.35;100813.28;105662;1256;74964;-60
2023/08/19 10:48:02;;;;;;;7.90;7.20;;;;;;;33.46;62.04;100816.33;105506;1257;83722;-61
2023/08/19 10:50:35;;;;;;;8.60;6.80;;;;;;;33.77;61.08;100818.48;105581;1251;73834;-63
2023/08/19 10:53:07;;;;;;;6.60;6.00;;;;;;;34.09;60.12;100817.48;105593;1254;69205;-64
2023/08/19 10:55:53;;;;;;;8.20;7.00;;;;;;;34.21;58.92;100817.80;105587;1256;69185;-63
2023/08/19 10:58:21;;;;;;;6.90;6.30;;;;;;;34.32;57.64;100817.30;105628;1254;75048;-64
2023/08/19 11:00:49;;;;;;;7.50;6.70;;;;;;;34.45;57.28;100816.08;105625;1254;82998;-62
2023/08/19 11:03:16;;;;;;;6.70;6.10;;;;;;;34.49;56.17;100815.33;105601;1256;73399;-63
2023/08/19 11:05:52;;;;;;;8.00;6.50;;;;;;;34.48;56.03;100815.25;105566;1256;69061;-63